UAL2271 KRSW-KCLE
Flight info
| Callsign | UAL2271 |
|---|---|
| Flight time | 2h 20m |
| Altitude | 37000 |
| Route | CSHEL8 CAMJO TWINS BURGG HVQ JANYS ROLLN2 |
| Aircraft | B738/M-SDE2E3FGHIRWXY/LB1 |
Departure
| Time | 2026-05-05 23:12 |
|---|---|
| Airport | Southwest Florida International Airport (KRSW) |
Arrival
| Time | 2026-05-06 01:32 |
|---|---|
| Airport | Cleveland Hopkins International Airport (KCLE) |
| Time | Latitude | Longitude | Altitude | Speed | Heading |
|---|---|---|---|---|---|
| 2026-05-05 22:56 | 26.52907 | -81.75443 | 41 ft | 0 kts | 282° |
| 2026-05-05 23:04 | 26.52906 | -81.75437 | 42 ft | 3 kts | 282° |
| 2026-05-05 23:05 | 26.52902 | -81.75416 | 39 ft | 3 kts | 310° |
| 2026-05-05 23:05 | 26.52889 | -81.75407 | 38 ft | 0 kts | 7° |
| 2026-05-05 23:08 | 26.52905 | -81.75402 | 42 ft | 9 kts | 22° |
| 2026-05-05 23:09 | 26.53013 | -81.75357 | 41 ft | 24 kts | 14° |
| 2026-05-05 23:09 | 26.53188 | -81.75326 | 43 ft | 25 kts | 8° |
| 2026-05-05 23:09 | 26.53338 | -81.75394 | 41 ft | 24 kts | 324° |
| 2026-05-05 23:09 | 26.53466 | -81.75487 | 40 ft | 18 kts | 354° |
| 2026-05-05 23:10 | 26.53575 | -81.75369 | 36 ft | 26 kts | 55° |
| 2026-05-05 23:10 | 26.53703 | -81.75169 | 38 ft | 35 kts | 53° |
| 2026-05-05 23:10 | 26.53844 | -81.74956 | 40 ft | 33 kts | 53° |
| 2026-05-05 23:10 | 26.53976 | -81.74757 | 42 ft | 30 kts | 53° |
| 2026-05-05 23:11 | 26.54096 | -81.74577 | 42 ft | 28 kts | 53° |
| 2026-05-05 23:11 | 26.54241 | -81.74398 | 41 ft | 30 kts | 8° |
| 2026-05-05 23:11 | 26.54285 | -81.74496 | 40 ft | 0 kts | 232° |
| 2026-05-05 23:12 | 26.54181 | -81.74659 | 39 ft | 71 kts | 234° |
| 2026-05-05 23:12 | 26.53707 | -81.75388 | 38 ft | 158 kts | 236° |
| 2026-05-05 23:12 | 26.52985 | -81.76537 | 640 ft | 190 kts | 236° |
| 2026-05-05 23:12 | 26.52196 | -81.77808 | 1601 ft | 204 kts | 235° |
| 2026-05-05 23:13 | 26.51348 | -81.79066 | 2716 ft | 205 kts | 231° |
| 2026-05-05 23:13 | 26.50438 | -81.80385 | 3292 ft | 224 kts | 231° |
| 2026-05-05 23:13 | 26.49789 | -81.82028 | 3687 ft | 245 kts | 263° |
| 2026-05-05 23:13 | 26.49718 | -81.83952 | 4440 ft | 247 kts | 271° |
| 2026-05-05 23:14 | 26.49810 | -81.85899 | 5170 ft | 259 kts | 282° |
| 2026-05-05 23:14 | 26.50579 | -81.87749 | 5694 ft | 277 kts | 313° |
| 2026-05-05 23:14 | 26.52151 | -81.88951 | 6638 ft | 274 kts | 339° |
| 2026-05-05 23:14 | 26.53985 | -81.89548 | 7592 ft | 276 kts | 346° |
| 2026-05-05 23:15 | 26.55875 | -81.90017 | 8465 ft | 280 kts | 346° |
| 2026-05-05 23:15 | 26.57795 | -81.90499 | 9358 ft | 284 kts | 345° |
| 2026-05-05 23:15 | 26.59730 | -81.91009 | 10267 ft | 286 kts | 343° |
| 2026-05-05 23:15 | 26.61726 | -81.91551 | 10673 ft | 308 kts | 343° |
| 2026-05-05 23:16 | 26.63933 | -81.91960 | 10838 ft | 338 kts | 359° |
| 2026-05-05 23:16 | 26.66321 | -81.91626 | 11083 ft | 361 kts | 6° |
| 2026-05-05 23:16 | 26.68833 | -81.91168 | 11613 ft | 369 kts | 6° |
| 2026-05-05 23:16 | 26.71392 | -81.90731 | 12339 ft | 371 kts | 5° |
| 2026-05-05 23:17 | 26.73954 | -81.90318 | 13115 ft | 372 kts | 5° |
| 2026-05-05 23:17 | 26.76531 | -81.89884 | 13824 ft | 377 kts | 8° |
| 2026-05-05 23:17 | 26.79000 | -81.88813 | 14398 ft | 388 kts | 26° |
| 2026-05-05 23:17 | 26.81327 | -81.87260 | 15024 ft | 391 kts | 27° |
| 2026-05-05 23:18 | 26.83687 | -81.85694 | 15604 ft | 394 kts | 26° |
| 2026-05-05 23:18 | 26.86065 | -81.84143 | 16166 ft | 397 kts | 26° |
| 2026-05-05 23:18 | 26.88476 | -81.82592 | 16734 ft | 401 kts | 26° |
| 2026-05-05 23:18 | 26.90909 | -81.81036 | 17290 ft | 404 kts | 25° |
| 2026-05-05 23:19 | 26.93333 | -81.79501 | 17830 ft | 406 kts | 24° |
| 2026-05-05 23:19 | 26.95855 | -81.78056 | 18390 ft | 408 kts | 22° |
| 2026-05-05 23:19 | 26.98410 | -81.76649 | 18851 ft | 410 kts | 21° |
| 2026-05-05 23:19 | 27.01036 | -81.75454 | 19266 ft | 408 kts | 8° |
| 2026-05-05 23:20 | 27.03836 | -81.75187 | 19707 ft | 402 kts | 353° |
| 2026-05-05 23:20 | 27.06555 | -81.75778 | 20195 ft | 398 kts | 340° |
| 2026-05-05 23:20 | 27.09206 | -81.76696 | 20654 ft | 400 kts | 339° |
| 2026-05-05 23:20 | 27.11868 | -81.77659 | 21070 ft | 402 kts | 339° |
| 2026-05-05 23:21 | 27.14540 | -81.78625 | 21490 ft | 405 kts | 339° |
| 2026-05-05 23:21 | 27.17242 | -81.79589 | 21923 ft | 407 kts | 339° |
| 2026-05-05 23:21 | 27.19959 | -81.80544 | 22340 ft | 409 kts | 339° |
| 2026-05-05 23:21 | 27.22690 | -81.81495 | 22742 ft | 412 kts | 339° |
| 2026-05-05 23:22 | 27.25436 | -81.82447 | 23159 ft | 414 kts | 339° |
| 2026-05-05 23:22 | 27.28161 | -81.83390 | 23562 ft | 415 kts | 339° |
| 2026-05-05 23:22 | 27.30935 | -81.84350 | 23883 ft | 417 kts | 339° |
| 2026-05-05 23:22 | 27.33710 | -81.85311 | 24218 ft | 419 kts | 339° |
| 2026-05-05 23:23 | 27.36498 | -81.86277 | 24577 ft | 419 kts | 339° |
| 2026-05-05 23:23 | 27.39287 | -81.87245 | 24933 ft | 420 kts | 339° |
| 2026-05-05 23:23 | 27.42081 | -81.88215 | 25258 ft | 421 kts | 339° |
| 2026-05-05 23:23 | 27.44885 | -81.89189 | 25576 ft | 422 kts | 339° |
| 2026-05-05 23:24 | 27.47695 | -81.90166 | 25907 ft | 423 kts | 339° |
| 2026-05-05 23:24 | 27.50509 | -81.91144 | 26230 ft | 424 kts | 339° |
| 2026-05-05 23:24 | 27.53335 | -81.92128 | 26540 ft | 425 kts | 339° |
| 2026-05-05 23:24 | 27.56127 | -81.93100 | 26835 ft | 426 kts | 339° |
| 2026-05-05 23:25 | 27.58966 | -81.94089 | 27135 ft | 427 kts | 339° |
| 2026-05-05 23:25 | 27.61810 | -81.95080 | 27421 ft | 428 kts | 339° |
| 2026-05-05 23:25 | 27.64661 | -81.96074 | 27715 ft | 429 kts | 339° |
| 2026-05-05 23:25 | 27.67521 | -81.97072 | 27997 ft | 430 kts | 339° |
| 2026-05-05 23:26 | 27.70388 | -81.98073 | 28286 ft | 431 kts | 339° |
| 2026-05-05 23:26 | 27.73259 | -81.99076 | 28551 ft | 433 kts | 339° |
| 2026-05-05 23:26 | 27.76042 | -82.00048 | 28805 ft | 433 kts | 339° |
| 2026-05-05 23:26 | 27.78889 | -82.01041 | 29148 ft | 433 kts | 339° |
| 2026-05-05 23:27 | 27.81764 | -82.02017 | 29585 ft | 430 kts | 340° |
| 2026-05-05 23:27 | 27.84628 | -82.02975 | 30109 ft | 427 kts | 340° |
| 2026-05-05 23:27 | 27.87459 | -82.03919 | 30619 ft | 421 kts | 339° |
| 2026-05-05 23:27 | 27.90258 | -82.04855 | 31045 ft | 418 kts | 339° |
| 2026-05-05 23:28 | 27.93009 | -82.05779 | 31397 ft | 417 kts | 339° |
| 2026-05-05 23:28 | 27.95785 | -82.06715 | 31746 ft | 416 kts | 339° |
| 2026-05-05 23:28 | 27.98556 | -82.07650 | 32142 ft | 414 kts | 339° |
| 2026-05-05 23:28 | 28.01307 | -82.08579 | 32558 ft | 411 kts | 339° |
| 2026-05-05 23:29 | 28.04039 | -82.09501 | 32967 ft | 409 kts | 339° |
| 2026-05-05 23:29 | 28.06765 | -82.10421 | 33384 ft | 407 kts | 339° |
| 2026-05-05 23:29 | 28.09514 | -82.11184 | 33750 ft | 411 kts | 346° |
| 2026-05-05 23:29 | 28.12365 | -82.11503 | 34132 ft | 411 kts | 349° |
| 2026-05-05 23:30 | 28.15216 | -82.11734 | 34501 ft | 410 kts | 349° |
| 2026-05-05 23:30 | 28.17098 | -82.11879 | 34748 ft | 408 kts | 349° |
| 2026-05-05 23:30 | 28.19921 | -82.12105 | 35090 ft | 406 kts | 348° |
| 2026-05-05 23:30 | 28.23650 | -82.12432 | 35462 ft | 405 kts | 348° |
| 2026-05-05 23:31 | 28.26454 | -82.12694 | 35737 ft | 404 kts | 348° |
| 2026-05-05 23:31 | 28.29255 | -82.12962 | 36044 ft | 403 kts | 348° |
| 2026-05-05 23:31 | 28.32042 | -82.13233 | 36305 ft | 403 kts | 347° |
| 2026-05-05 23:31 | 28.34836 | -82.13505 | 36513 ft | 404 kts | 347° |
| 2026-05-05 23:32 | 28.36728 | -82.13690 | 36650 ft | 404 kts | 347° |
| 2026-05-05 23:32 | 28.39530 | -82.13962 | 36882 ft | 404 kts | 347° |
| 2026-05-05 23:32 | 28.42294 | -82.14230 | 37037 ft | 405 kts | 347° |
| 2026-05-05 23:32 | 28.45148 | -82.14508 | 37062 ft | 407 kts | 347° |
| 2026-05-05 23:33 | 28.50504 | -82.15885 | 37049 ft | 389 kts | 332° |
| 2026-05-05 23:33 | 28.55470 | -82.18337 | 37050 ft | 388 kts | 331° |
| 2026-05-05 23:34 | 28.60414 | -82.20794 | 37033 ft | 387 kts | 331° |
| 2026-05-05 23:34 | 28.65365 | -82.23225 | 37035 ft | 387 kts | 332° |
| 2026-05-05 23:35 | 28.70289 | -82.25626 | 37036 ft | 387 kts | 332° |
| 2026-05-05 23:35 | 28.75248 | -82.28042 | 37063 ft | 387 kts | 331° |
| 2026-05-05 23:36 | 28.80205 | -82.30458 | 37044 ft | 387 kts | 331° |
| 2026-05-05 23:36 | 28.85159 | -82.32875 | 37037 ft | 386 kts | 331° |
| 2026-05-05 23:37 | 28.90069 | -82.35274 | 37037 ft | 386 kts | 331° |
| 2026-05-05 23:37 | 28.95008 | -82.37689 | 37033 ft | 385 kts | 331° |
| 2026-05-05 23:38 | 28.99936 | -82.40102 | 37022 ft | 386 kts | 331° |
| 2026-05-05 23:38 | 29.04874 | -82.42523 | 37050 ft | 386 kts | 331° |
| 2026-05-05 23:39 | 29.09821 | -82.44950 | 37034 ft | 387 kts | 331° |
| 2026-05-05 23:39 | 29.14766 | -82.47378 | 37033 ft | 387 kts | 331° |
| 2026-05-05 23:40 | 29.19715 | -82.49812 | 37034 ft | 387 kts | 331° |
| 2026-05-05 23:40 | 29.24644 | -82.52223 | 37035 ft | 388 kts | 333° |
| 2026-05-05 23:41 | 29.27282 | -82.53034 | 37025 ft | 399 kts | 345° |
| 2026-05-05 23:41 | 29.30050 | -82.53379 | 37038 ft | 401 kts | 346° |
| 2026-05-05 23:41 | 29.35607 | -82.54023 | 37041 ft | 401 kts | 346° |
| 2026-05-05 23:42 | 29.41151 | -82.54686 | 37028 ft | 400 kts | 346° |
| 2026-05-05 23:42 | 29.46689 | -82.55372 | 37031 ft | 399 kts | 345° |
| 2026-05-05 23:43 | 29.52185 | -82.56063 | 37037 ft | 399 kts | 345° |
| 2026-05-05 23:43 | 29.57709 | -82.56761 | 37035 ft | 399 kts | 345° |
| 2026-05-05 23:44 | 29.63228 | -82.57459 | 37062 ft | 398 kts | 345° |
| 2026-05-05 23:44 | 29.68743 | -82.58156 | 37046 ft | 398 kts | 345° |
| 2026-05-05 23:45 | 29.74252 | -82.58854 | 37037 ft | 398 kts | 345° |
| 2026-05-05 23:45 | 29.79724 | -82.59547 | 37041 ft | 397 kts | 345° |
| 2026-05-05 23:46 | 29.85220 | -82.60245 | 37040 ft | 397 kts | 345° |
| 2026-05-05 23:46 | 29.90709 | -82.60942 | 37063 ft | 397 kts | 345° |
| 2026-05-05 23:47 | 29.96162 | -82.61636 | 37048 ft | 396 kts | 345° |
| 2026-05-05 23:47 | 30.01641 | -82.62333 | 37041 ft | 396 kts | 345° |
| 2026-05-05 23:48 | 30.07123 | -82.63032 | 37039 ft | 396 kts | 345° |
| 2026-05-05 23:48 | 30.12596 | -82.63730 | 37038 ft | 396 kts | 345° |
| 2026-05-05 23:49 | 30.18077 | -82.64430 | 37037 ft | 396 kts | 345° |
| 2026-05-05 23:49 | 30.23562 | -82.65132 | 37081 ft | 396 kts | 345° |
| 2026-05-05 23:50 | 30.29008 | -82.65829 | 37071 ft | 396 kts | 345° |
| 2026-05-05 23:50 | 30.34482 | -82.66531 | 37091 ft | 396 kts | 345° |
| 2026-05-05 23:51 | 30.39959 | -82.67234 | 37088 ft | 396 kts | 345° |
| 2026-05-05 23:51 | 30.45438 | -82.67937 | 37105 ft | 395 kts | 345° |
| 2026-05-05 23:52 | 30.50920 | -82.68584 | 37101 ft | 400 kts | 350° |
| 2026-05-05 23:52 | 30.53749 | -82.68288 | 37125 ft | 412 kts | 358° |
| 2026-05-05 23:52 | 30.56588 | -82.67800 | 37101 ft | 412 kts | 358° |
| 2026-05-05 23:53 | 30.62224 | -82.66842 | 37103 ft | 412 kts | 358° |
| 2026-05-05 23:53 | 30.67910 | -82.65902 | 37105 ft | 412 kts | 358° |
| 2026-05-05 23:54 | 30.73595 | -82.64978 | 37105 ft | 412 kts | 358° |
| 2026-05-05 23:54 | 30.79275 | -82.64060 | 37097 ft | 412 kts | 358° |
| 2026-05-05 23:55 | 30.84964 | -82.63139 | 37089 ft | 413 kts | 358° |
| 2026-05-05 23:55 | 30.90657 | -82.62216 | 37080 ft | 413 kts | 358° |
| 2026-05-05 23:56 | 30.96353 | -82.61291 | 37043 ft | 413 kts | 358° |
| 2026-05-05 23:56 | 31.02035 | -82.60368 | 37036 ft | 413 kts | 358° |
| 2026-05-05 23:57 | 31.07689 | -82.59448 | 37038 ft | 413 kts | 358° |
| 2026-05-05 23:57 | 31.13379 | -82.58521 | 37041 ft | 413 kts | 358° |
| 2026-05-05 23:58 | 31.19081 | -82.57591 | 37040 ft | 413 kts | 358° |
| 2026-05-05 23:58 | 31.24774 | -82.56661 | 37041 ft | 413 kts | 358° |
| 2026-05-05 23:59 | 31.30475 | -82.55728 | 37035 ft | 413 kts | 358° |
| 2026-05-05 23:59 | 31.36148 | -82.54800 | 37042 ft | 414 kts | 358° |
| 2026-05-06 00:00 | 31.41851 | -82.53865 | 37030 ft | 414 kts | 357° |
| 2026-05-06 00:00 | 31.47552 | -82.52929 | 37028 ft | 414 kts | 357° |
| 2026-05-06 00:01 | 31.53255 | -82.51992 | 37029 ft | 414 kts | 358° |
| 2026-05-06 00:01 | 31.58954 | -82.51054 | 37056 ft | 414 kts | 357° |
| 2026-05-06 00:02 | 31.64665 | -82.50114 | 37029 ft | 414 kts | 357° |
| 2026-05-06 00:02 | 31.70378 | -82.49171 | 37020 ft | 414 kts | 357° |
| 2026-05-06 00:03 | 31.76062 | -82.48232 | 37016 ft | 414 kts | 357° |
| 2026-05-06 00:03 | 31.81770 | -82.47288 | 37017 ft | 414 kts | 357° |
| 2026-05-06 00:04 | 31.87478 | -82.46343 | 37044 ft | 415 kts | 357° |
| 2026-05-06 00:04 | 31.93205 | -82.45395 | 37019 ft | 415 kts | 357° |
| 2026-05-06 00:05 | 32.01779 | -82.43970 | 37017 ft | 414 kts | 357° |
| 2026-05-06 00:06 | 32.07492 | -82.43020 | 37017 ft | 414 kts | 357° |
| 2026-05-06 00:06 | 32.13195 | -82.42071 | 37049 ft | 414 kts | 357° |
| 2026-05-06 00:07 | 32.18905 | -82.41119 | 37027 ft | 414 kts | 357° |
| 2026-05-06 00:07 | 32.24585 | -82.40171 | 37020 ft | 414 kts | 357° |
| 2026-05-06 00:08 | 32.30305 | -82.39214 | 37017 ft | 414 kts | 358° |
| 2026-05-06 00:08 | 32.36016 | -82.38259 | 37020 ft | 414 kts | 358° |
| 2026-05-06 00:09 | 32.41736 | -82.37301 | 37024 ft | 415 kts | 358° |
| 2026-05-06 00:09 | 32.47458 | -82.36341 | 37015 ft | 415 kts | 358° |
| 2026-05-06 00:10 | 32.53154 | -82.35384 | 37007 ft | 416 kts | 358° |
| 2026-05-06 00:10 | 32.58882 | -82.34420 | 37009 ft | 415 kts | 358° |
| 2026-05-06 00:11 | 32.64612 | -82.33454 | 37004 ft | 415 kts | 358° |
| 2026-05-06 00:11 | 32.70352 | -82.32487 | 37016 ft | 417 kts | 358° |
| 2026-05-06 00:12 | 32.76065 | -82.31522 | 37003 ft | 417 kts | 358° |
| 2026-05-06 00:12 | 32.81816 | -82.30556 | 37009 ft | 417 kts | 358° |
| 2026-05-06 00:13 | 32.87570 | -82.29599 | 37006 ft | 417 kts | 358° |
| 2026-05-06 00:13 | 32.93324 | -82.28641 | 37024 ft | 418 kts | 358° |
| 2026-05-06 00:14 | 32.99091 | -82.27680 | 37008 ft | 419 kts | 358° |
| 2026-05-06 00:14 | 33.04867 | -82.26713 | 37002 ft | 419 kts | 358° |
| 2026-05-06 00:15 | 33.10648 | -82.25744 | 37001 ft | 419 kts | 358° |
| 2026-05-06 00:15 | 33.16396 | -82.24780 | 37003 ft | 420 kts | 358° |
| 2026-05-06 00:16 | 33.22188 | -82.23807 | 36997 ft | 420 kts | 358° |
| 2026-05-06 00:16 | 33.27968 | -82.22834 | 37001 ft | 420 kts | 358° |
| 2026-05-06 00:17 | 33.33757 | -82.21859 | 37018 ft | 420 kts | 358° |
| 2026-05-06 00:17 | 33.39507 | -82.20889 | 37017 ft | 420 kts | 358° |
| 2026-05-06 00:18 | 33.45294 | -82.19912 | 37048 ft | 420 kts | 358° |
| 2026-05-06 00:18 | 33.51102 | -82.18931 | 37020 ft | 421 kts | 358° |
| 2026-05-06 00:19 | 33.56914 | -82.17946 | 37019 ft | 422 kts | 358° |
| 2026-05-06 00:19 | 33.62728 | -82.16960 | 37009 ft | 422 kts | 358° |
| 2026-05-06 00:20 | 33.68542 | -82.15972 | 37008 ft | 421 kts | 358° |
| 2026-05-06 00:20 | 33.73370 | -82.15151 | 37015 ft | 422 kts | 358° |
| 2026-05-06 00:21 | 33.80137 | -82.14000 | 37004 ft | 423 kts | 358° |
| 2026-05-06 00:21 | 33.84989 | -82.13173 | 37004 ft | 423 kts | 358° |
| 2026-05-06 00:22 | 33.90823 | -82.12176 | 37013 ft | 423 kts | 358° |
| 2026-05-06 00:22 | 33.96654 | -82.11180 | 37044 ft | 423 kts | 358° |
| 2026-05-06 00:23 | 34.02432 | -82.10191 | 37030 ft | 423 kts | 358° |
| 2026-05-06 00:23 | 34.08270 | -82.09190 | 37019 ft | 424 kts | 358° |
| 2026-05-06 00:24 | 34.14104 | -82.08188 | 37021 ft | 423 kts | 358° |
| 2026-05-06 00:24 | 34.19940 | -82.07184 | 37028 ft | 423 kts | 358° |
| 2026-05-06 00:25 | 34.25784 | -82.06179 | 37030 ft | 424 kts | 358° |
| 2026-05-06 00:25 | 34.31618 | -82.05174 | 37032 ft | 424 kts | 358° |
| 2026-05-06 00:26 | 34.37453 | -82.04166 | 37020 ft | 424 kts | 358° |
| 2026-05-06 00:26 | 34.43257 | -82.03163 | 37017 ft | 423 kts | 358° |
| 2026-05-06 00:27 | 34.49085 | -82.02154 | 37050 ft | 423 kts | 358° |
| 2026-05-06 00:27 | 34.54929 | -82.01141 | 37036 ft | 424 kts | 358° |
| 2026-05-06 00:28 | 34.60765 | -82.00128 | 37026 ft | 424 kts | 358° |
| 2026-05-06 00:28 | 34.66612 | -81.99112 | 37018 ft | 424 kts | 358° |
| 2026-05-06 00:29 | 34.72457 | -81.98094 | 37014 ft | 424 kts | 358° |
| 2026-05-06 00:29 | 34.78265 | -81.97082 | 37023 ft | 424 kts | 358° |
| 2026-05-06 00:30 | 34.84108 | -81.96062 | 37025 ft | 425 kts | 358° |
| 2026-05-06 00:30 | 34.89961 | -81.95038 | 37018 ft | 425 kts | 358° |
| 2026-05-06 00:31 | 34.95819 | -81.94012 | 37019 ft | 424 kts | 358° |
| 2026-05-06 00:31 | 35.01667 | -81.92987 | 37024 ft | 425 kts | 358° |
| 2026-05-06 00:32 | 35.07494 | -81.92353 | 37015 ft | 417 kts | 353° |
| 2026-05-06 00:32 | 35.13293 | -81.92140 | 37002 ft | 416 kts | 352° |
| 2026-05-06 00:33 | 35.19053 | -81.91943 | 36994 ft | 417 kts | 352° |
| 2026-05-06 00:33 | 35.24851 | -81.91708 | 37038 ft | 417 kts | 352° |
| 2026-05-06 00:34 | 35.30664 | -81.91450 | 37026 ft | 418 kts | 352° |
| 2026-05-06 00:34 | 35.36472 | -81.91185 | 37018 ft | 418 kts | 352° |
| 2026-05-06 00:35 | 35.42282 | -81.90917 | 37017 ft | 418 kts | 352° |
| 2026-05-06 00:35 | 35.48097 | -81.90650 | 37019 ft | 417 kts | 352° |
| 2026-05-06 00:36 | 35.53913 | -81.90384 | 37008 ft | 418 kts | 352° |
| 2026-05-06 00:36 | 35.59721 | -81.90117 | 37013 ft | 418 kts | 352° |
| 2026-05-06 00:37 | 35.65495 | -81.89851 | 36999 ft | 418 kts | 352° |
| 2026-05-06 00:37 | 35.71315 | -81.89582 | 37005 ft | 418 kts | 352° |
| 2026-05-06 00:38 | 35.77131 | -81.89314 | 37007 ft | 418 kts | 352° |
| 2026-05-06 00:38 | 35.82953 | -81.89044 | 37026 ft | 418 kts | 352° |
| 2026-05-06 00:39 | 35.88795 | -81.88763 | 36992 ft | 419 kts | 352° |
| 2026-05-06 00:39 | 35.94630 | -81.88484 | 36990 ft | 419 kts | 352° |
| 2026-05-06 00:40 | 36.00455 | -81.88223 | 36981 ft | 420 kts | 352° |
| 2026-05-06 00:40 | 36.06247 | -81.87961 | 36979 ft | 419 kts | 352° |
| 2026-05-06 00:41 | 36.12074 | -81.87692 | 36977 ft | 418 kts | 353° |
| 2026-05-06 00:41 | 36.17887 | -81.87420 | 36963 ft | 418 kts | 353° |
| 2026-05-06 00:42 | 36.23707 | -81.87150 | 36989 ft | 419 kts | 352° |
| 2026-05-06 00:42 | 36.29523 | -81.86878 | 36943 ft | 418 kts | 352° |
| 2026-05-06 00:43 | 36.35336 | -81.86604 | 36962 ft | 418 kts | 352° |
| 2026-05-06 00:43 | 36.41153 | -81.86331 | 36951 ft | 419 kts | 352° |
| 2026-05-06 00:44 | 36.46986 | -81.86058 | 36953 ft | 420 kts | 352° |
| 2026-05-06 00:44 | 36.52799 | -81.85785 | 36939 ft | 420 kts | 352° |
| 2026-05-06 00:45 | 36.58655 | -81.85509 | 36964 ft | 421 kts | 352° |
| 2026-05-06 00:45 | 36.64524 | -81.85231 | 36969 ft | 422 kts | 352° |
| 2026-05-06 00:46 | 36.70391 | -81.84953 | 36977 ft | 421 kts | 352° |
| 2026-05-06 00:46 | 36.76259 | -81.84675 | 36981 ft | 422 kts | 352° |
| 2026-05-06 00:47 | 36.82102 | -81.84398 | 36961 ft | 422 kts | 352° |
| 2026-05-06 00:47 | 36.87976 | -81.84119 | 36974 ft | 423 kts | 352° |
| 2026-05-06 00:48 | 36.93860 | -81.83839 | 36988 ft | 424 kts | 352° |
| 2026-05-06 00:48 | 36.99763 | -81.83559 | 36997 ft | 424 kts | 352° |
| 2026-05-06 00:49 | 37.05655 | -81.83277 | 37000 ft | 424 kts | 352° |
| 2026-05-06 00:49 | 37.11555 | -81.82994 | 36978 ft | 423 kts | 352° |
| 2026-05-06 00:50 | 37.17399 | -81.82714 | 37003 ft | 422 kts | 352° |
| 2026-05-06 00:50 | 37.23282 | -81.82429 | 36976 ft | 424 kts | 352° |
| 2026-05-06 00:51 | 37.29177 | -81.82149 | 36906 ft | 423 kts | 352° |
| 2026-05-06 00:51 | 37.35048 | -81.81867 | 36922 ft | 421 kts | 352° |
| 2026-05-06 00:52 | 37.40915 | -81.81584 | 36898 ft | 421 kts | 351° |
| 2026-05-06 00:52 | 37.46765 | -81.81302 | 36919 ft | 421 kts | 351° |
| 2026-05-06 00:53 | 37.52578 | -81.81027 | 36928 ft | 418 kts | 351° |
| 2026-05-06 00:53 | 37.58414 | -81.80748 | 36914 ft | 419 kts | 351° |
| 2026-05-06 00:54 | 37.64261 | -81.80461 | 36917 ft | 421 kts | 351° |
| 2026-05-06 00:54 | 37.70131 | -81.80174 | 36908 ft | 423 kts | 351° |
| 2026-05-06 00:55 | 37.76028 | -81.79886 | 36911 ft | 424 kts | 351° |
| 2026-05-06 00:55 | 37.81892 | -81.79603 | 36873 ft | 423 kts | 351° |
| 2026-05-06 00:56 | 37.87763 | -81.79325 | 36899 ft | 422 kts | 351° |
| 2026-05-06 00:56 | 37.93636 | -81.79028 | 36893 ft | 423 kts | 351° |
| 2026-05-06 00:57 | 37.99529 | -81.78735 | 36907 ft | 423 kts | 351° |
| 2026-05-06 00:57 | 38.05403 | -81.78448 | 36885 ft | 423 kts | 351° |
| 2026-05-06 00:58 | 38.11287 | -81.78169 | 36905 ft | 423 kts | 351° |
| 2026-05-06 00:58 | 38.17177 | -81.77872 | 36882 ft | 423 kts | 351° |
| 2026-05-06 00:59 | 38.23050 | -81.77582 | 36894 ft | 422 kts | 351° |
| 2026-05-06 00:59 | 38.28879 | -81.77293 | 36888 ft | 422 kts | 351° |
| 2026-05-06 01:00 | 38.34751 | -81.77034 | 36882 ft | 419 kts | 348° |
| 2026-05-06 01:00 | 38.40445 | -81.77751 | 36895 ft | 408 kts | 341° |
| 2026-05-06 01:01 | 38.46070 | -81.78746 | 36888 ft | 408 kts | 341° |
| 2026-05-06 01:01 | 38.51703 | -81.79722 | 36892 ft | 409 kts | 341° |
| 2026-05-06 01:02 | 38.57365 | -81.80671 | 36875 ft | 410 kts | 341° |
| 2026-05-06 01:02 | 38.62987 | -81.81600 | 36884 ft | 410 kts | 341° |
| 2026-05-06 01:03 | 38.68652 | -81.82536 | 36883 ft | 410 kts | 341° |
| 2026-05-06 01:03 | 38.74331 | -81.83475 | 36881 ft | 410 kts | 341° |
| 2026-05-06 01:04 | 38.80002 | -81.84415 | 36873 ft | 410 kts | 341° |
| 2026-05-06 01:04 | 38.85640 | -81.85350 | 36895 ft | 411 kts | 341° |
| 2026-05-06 01:05 | 38.91315 | -81.86294 | 36874 ft | 411 kts | 341° |
| 2026-05-06 01:05 | 38.96997 | -81.87241 | 36871 ft | 412 kts | 341° |
| 2026-05-06 01:06 | 39.02669 | -81.88187 | 36872 ft | 412 kts | 341° |
| 2026-05-06 01:06 | 39.08360 | -81.89137 | 36889 ft | 412 kts | 341° |
| 2026-05-06 01:07 | 39.14071 | -81.90094 | 36867 ft | 413 kts | 341° |
| 2026-05-06 01:07 | 39.19730 | -81.91042 | 36863 ft | 413 kts | 341° |
| 2026-05-06 01:08 | 39.25465 | -81.92010 | 36281 ft | 417 kts | 341° |
| 2026-05-06 01:08 | 39.27406 | -81.92335 | 36029 ft | 415 kts | 341° |
| 2026-05-06 01:08 | 39.30265 | -81.92812 | 35692 ft | 414 kts | 341° |
| 2026-05-06 01:08 | 39.33123 | -81.93292 | 35335 ft | 415 kts | 341° |
| 2026-05-06 01:09 | 39.35994 | -81.93777 | 34940 ft | 416 kts | 341° |
| 2026-05-06 01:09 | 39.38876 | -81.94265 | 34558 ft | 418 kts | 341° |
| 2026-05-06 01:09 | 39.41731 | -81.94748 | 34131 ft | 419 kts | 341° |
| 2026-05-06 01:09 | 39.44630 | -81.95239 | 33639 ft | 421 kts | 341° |
| 2026-05-06 01:10 | 39.47540 | -81.95727 | 33220 ft | 421 kts | 342° |
| 2026-05-06 01:10 | 39.50446 | -81.96219 | 32875 ft | 420 kts | 342° |
| 2026-05-06 01:10 | 39.53340 | -81.96708 | 32613 ft | 418 kts | 342° |
| 2026-05-06 01:10 | 39.56245 | -81.97202 | 32323 ft | 424 kts | 342° |
| 2026-05-06 01:11 | 39.59202 | -81.97711 | 32017 ft | 432 kts | 343° |
| 2026-05-06 01:11 | 39.62200 | -81.98224 | 31729 ft | 437 kts | 343° |
| 2026-05-06 01:11 | 39.65221 | -81.98735 | 31419 ft | 439 kts | 343° |
| 2026-05-06 01:11 | 39.68262 | -81.99248 | 31117 ft | 441 kts | 344° |
| 2026-05-06 01:12 | 39.71316 | -81.99765 | 30819 ft | 444 kts | 344° |
| 2026-05-06 01:12 | 39.74364 | -82.00284 | 30539 ft | 446 kts | 344° |
| 2026-05-06 01:12 | 39.77466 | -82.00752 | 30274 ft | 454 kts | 349° |
| 2026-05-06 01:12 | 39.80678 | -82.00388 | 29987 ft | 473 kts | 3° |
| 2026-05-06 01:13 | 39.83924 | -81.99539 | 29691 ft | 476 kts | 4° |
| 2026-05-06 01:13 | 39.87188 | -81.98687 | 29349 ft | 479 kts | 4° |
| 2026-05-06 01:13 | 39.90464 | -81.97850 | 29031 ft | 481 kts | 4° |
| 2026-05-06 01:13 | 39.93753 | -81.97030 | 28709 ft | 482 kts | 4° |
| 2026-05-06 01:14 | 40.00354 | -81.95422 | 28094 ft | 485 kts | 4° |
| 2026-05-06 01:14 | 40.03675 | -81.94621 | 27742 ft | 486 kts | 4° |
| 2026-05-06 01:14 | 40.07019 | -81.93816 | 27209 ft | 491 kts | 4° |
| 2026-05-06 01:15 | 40.10387 | -81.93004 | 26688 ft | 493 kts | 4° |
| 2026-05-06 01:15 | 40.13770 | -81.92185 | 26183 ft | 495 kts | 4° |
| 2026-05-06 01:15 | 40.17160 | -81.91360 | 25701 ft | 496 kts | 4° |
| 2026-05-06 01:15 | 40.20564 | -81.90533 | 25236 ft | 496 kts | 4° |
| 2026-05-06 01:16 | 40.23957 | -81.89708 | 24763 ft | 496 kts | 4° |
| 2026-05-06 01:16 | 40.27341 | -81.88880 | 24297 ft | 494 kts | 5° |
| 2026-05-06 01:16 | 40.30715 | -81.88054 | 23835 ft | 492 kts | 5° |
| 2026-05-06 01:16 | 40.34067 | -81.87236 | 23375 ft | 488 kts | 5° |
| 2026-05-06 01:17 | 40.37359 | -81.86438 | 22849 ft | 484 kts | 4° |
| 2026-05-06 01:17 | 40.40665 | -81.85664 | 22318 ft | 480 kts | 4° |
| 2026-05-06 01:17 | 40.43895 | -81.84915 | 21445 ft | 463 kts | 4° |
| 2026-05-06 01:17 | 40.47034 | -81.84190 | 20437 ft | 452 kts | 4° |
| 2026-05-06 01:18 | 40.50094 | -81.83480 | 19466 ft | 442 kts | 4° |
| 2026-05-06 01:18 | 40.53110 | -81.82778 | 18024 ft | 442 kts | 4° |
| 2026-05-06 01:18 | 40.56150 | -81.82073 | 16669 ft | 440 kts | 5° |
| 2026-05-06 01:18 | 40.59123 | -81.81375 | 15841 ft | 425 kts | 5° |
| 2026-05-06 01:19 | 40.61986 | -81.80699 | 15121 ft | 411 kts | 5° |
| 2026-05-06 01:19 | 40.64764 | -81.80045 | 14410 ft | 400 kts | 5° |
| 2026-05-06 01:19 | 40.67472 | -81.79410 | 13710 ft | 390 kts | 4° |
| 2026-05-06 01:19 | 40.70118 | -81.78792 | 12931 ft | 383 kts | 5° |
| 2026-05-06 01:20 | 40.72719 | -81.78184 | 12166 ft | 376 kts | 5° |
| 2026-05-06 01:20 | 40.75281 | -81.77585 | 11486 ft | 369 kts | 5° |
| 2026-05-06 01:20 | 40.77748 | -81.77004 | 11245 ft | 350 kts | 5° |
| 2026-05-06 01:20 | 40.80078 | -81.76456 | 11137 ft | 344 kts | 5° |
| 2026-05-06 01:21 | 40.82471 | -81.75901 | 11052 ft | 353 kts | 5° |
| 2026-05-06 01:21 | 40.84908 | -81.75332 | 11021 ft | 358 kts | 5° |
| 2026-05-06 01:21 | 40.87378 | -81.74751 | 10998 ft | 360 kts | 5° |
| 2026-05-06 01:21 | 40.89853 | -81.74319 | 10836 ft | 353 kts | 357° |
| 2026-05-06 01:22 | 40.92255 | -81.74231 | 10573 ft | 336 kts | 354° |
| 2026-05-06 01:22 | 40.94546 | -81.74217 | 10314 ft | 322 kts | 354° |
| 2026-05-06 01:22 | 40.96745 | -81.74177 | 10074 ft | 310 kts | 354° |
| 2026-05-06 01:22 | 40.98865 | -81.74109 | 9842 ft | 300 kts | 354° |
| 2026-05-06 01:23 | 41.00912 | -81.74029 | 9561 ft | 291 kts | 355° |
| 2026-05-06 01:23 | 41.02918 | -81.73953 | 9246 ft | 284 kts | 352° |
| 2026-05-06 01:23 | 41.04881 | -81.73957 | 8972 ft | 277 kts | 355° |
| 2026-05-06 01:23 | 41.06711 | -81.74207 | 8996 ft | 270 kts | 327° |
| 2026-05-06 01:24 | 41.08105 | -81.75700 | 8997 ft | 253 kts | 293° |
| 2026-05-06 01:24 | 41.08904 | -81.77744 | 8996 ft | 247 kts | 289° |
| 2026-05-06 01:24 | 41.09690 | -81.79691 | 8967 ft | 227 kts | 282° |
| 2026-05-06 01:24 | 41.10083 | -81.81673 | 8329 ft | 228 kts | 276° |
| 2026-05-06 01:25 | 41.10639 | -81.83738 | 7832 ft | 243 kts | 285° |
| 2026-05-06 01:25 | 41.11431 | -81.85786 | 7332 ft | 256 kts | 291° |
| 2026-05-06 01:25 | 41.12366 | -81.87827 | 6839 ft | 260 kts | 294° |
| 2026-05-06 01:25 | 41.13354 | -81.89839 | 6361 ft | 260 kts | 295° |
| 2026-05-06 01:26 | 41.14345 | -81.91816 | 6078 ft | 252 kts | 295° |
| 2026-05-06 01:26 | 41.15295 | -81.93712 | 6015 ft | 242 kts | 295° |
| 2026-05-06 01:26 | 41.16209 | -81.95539 | 6006 ft | 234 kts | 295° |
| 2026-05-06 01:26 | 41.17097 | -81.97311 | 6007 ft | 228 kts | 295° |
| 2026-05-06 01:27 | 41.18000 | -81.99046 | 5948 ft | 232 kts | 302° |
| 2026-05-06 01:27 | 41.19402 | -82.00266 | 5582 ft | 251 kts | 334° |
| 2026-05-06 01:27 | 41.21111 | -82.00741 | 5256 ft | 253 kts | 348° |
| 2026-05-06 01:27 | 41.22858 | -82.00972 | 4929 ft | 251 kts | 349° |
| 2026-05-06 01:28 | 41.24587 | -82.01190 | 4599 ft | 248 kts | 350° |
| 2026-05-06 01:28 | 41.26300 | -82.01421 | 4262 ft | 245 kts | 350° |
| 2026-05-06 01:28 | 41.27970 | -82.01628 | 3971 ft | 237 kts | 357° |
| 2026-05-06 01:28 | 41.29532 | -82.01091 | 3654 ft | 229 kts | 26° |
| 2026-05-06 01:29 | 41.30896 | -82.00091 | 3368 ft | 218 kts | 27° |
| 2026-05-06 01:29 | 41.32164 | -81.99156 | 3133 ft | 202 kts | 27° |
| 2026-05-06 01:29 | 41.33217 | -81.98054 | 2880 ft | 182 kts | 44° |
| 2026-05-06 01:29 | 41.33998 | -81.96831 | 2620 ft | 162 kts | 47° |
| 2026-05-06 01:30 | 41.34705 | -81.95701 | 2429 ft | 158 kts | 47° |
| 2026-05-06 01:30 | 41.35407 | -81.94588 | 2200 ft | 156 kts | 47° |
| 2026-05-06 01:30 | 41.36096 | -81.93498 | 2011 ft | 151 kts | 47° |
| 2026-05-06 01:30 | 41.36776 | -81.92434 | 1809 ft | 150 kts | 47° |
| 2026-05-06 01:31 | 41.37447 | -81.91362 | 1696 ft | 157 kts | 50° |
| 2026-05-06 01:31 | 41.38154 | -81.90206 | 1447 ft | 164 kts | 47° |
| 2026-05-06 01:31 | 41.38897 | -81.89055 | 1197 ft | 164 kts | 47° |
| 2026-05-06 01:31 | 41.39640 | -81.87877 | 950 ft | 167 kts | 49° |
| 2026-05-06 01:32 | 41.40376 | -81.86717 | 775 ft | 155 kts | 49° |
| 2026-05-06 01:32 | 41.40947 | -81.85817 | 786 ft | 95 kts | 56° |
| 2026-05-06 01:32 | 41.41221 | -81.85411 | 791 ft | 57 kts | 48° |
| 2026-05-06 01:32 | 41.41411 | -81.85108 | 798 ft | 40 kts | 51° |
| 2026-05-06 01:33 | 41.41540 | -81.84827 | 796 ft | 28 kts | 111° |
| 2026-05-06 01:33 | 41.41400 | -81.84657 | 792 ft | 26 kts | 135° |